Time;durP1;ratioP1;P1;durP2;ratioP2;P2;SDS_P1;SDS_P2;PMS_P1;PMS_P2;Temp;Humidity;BMP_temperature;BMP_pressure;BME280_temperature;BME280_humidity;BME280_pressure;Samples;Min_cycle;Max_cycle;Signal;HPM_P1;HPM_P2
2021/03/07 00:01:22;;;;;;;;;;;;;;;7.81;42.97;101542.00;4782388;29;20402;-73
2021/03/07 00:03:49;;;;;;;;;;;;;;;7.79;43.37;101538.50;4792792;29;19943;-73
2021/03/07 00:06:16;;;;;;;;;;;;;;;7.74;43.79;101527.97;4786654;29;20035;-73
2021/03/07 00:08:43;;;;;;;;;;;;;;;7.70;44.20;101525.34;4784938;29;19943;-73
2021/03/07 00:11:20;;;;;;;;;;;;;;;7.68;44.59;101519.22;4788193;29;20466;-73
2021/03/07 00:13:48;;;;;;;;;;;;;;;7.67;44.87;101514.81;4789212;29;21535;-74
2021/03/07 00:16:15;;;;;;;;;;;;;;;7.64;44.56;101513.97;4789437;29;19942;-73
2021/03/07 00:18:41;;;;;;;;;;;;;;;7.64;45.22;101507.81;4774488;29;21218;-74
2021/03/07 00:21:09;;;;;;;;;;;;;;;7.62;44.88;101510.44;4789480;29;19940;-73
2021/03/07 00:23:41;;;;;;;;;;;;;;;7.60;45.49;101501.69;4794819;29;20354;-74
2021/03/07 00:26:08;;;;;;;;;;;;;;;7.54;45.38;101508.69;4788229;29;21337;-73
2021/03/07 00:28:41;;;;;;;;;;;;;;;7.56;45.86;101499.91;4788738;29;20574;-73
2021/03/07 00:31:09;;;;;;;;;;;;;;;7.55;45.79;101497.28;4767933;29;19947;-73
2021/03/07 00:34:01;;;;;;;;;;;;;;;7.52;46.17;101490.28;4775575;29;19936;-74
2021/03/07 00:36:28;;;;;;;;;;;;;;;7.51;46.23;101491.16;4786385;29;20442;-73
2021/03/07 00:38:55;;;;;;;;;;;;;;;7.52;46.08;101492.91;4773770;29;20342;-73
2021/03/07 00:41:37;;;;;;;;;;;;;;;7.53;46.24;101493.81;4765574;29;19944;-73
2021/03/07 00:44:05;;;;;;;;;;;;;;;7.52;46.42;101494.69;4772416;29;20284;-73
2021/03/07 00:46:33;;;;;;;;;;;;;;;7.50;46.87;101492.06;4773920;29;19936;-74
2021/03/07 00:49:00;;;;;;;;;;;;;;;7.48;46.68;101481.53;4775922;29;21195;-74
2021/03/07 00:51:27;;;;;;;;;;;;;;;7.46;46.84;101485.91;4766578;29;20671;-73
2021/03/07 00:53:54;;;;;;;;;;;;;;;7.41;46.81;101485.06;4775707;29;20409;-73
2021/03/07 00:56:21;;;;;;;;;;;;;;;7.46;47.06;101485.06;4767569;29;19988;-74
2021/03/07 00:58:48;;;;;;;;;;;;;;;7.45;47.41;101478.03;4760019;29;20425;-74
2021/03/07 01:01:15;;;;;;;;;;;;;;;7.42;47.19;101471.00;4760203;29;19951;-74
2021/03/07 01:03:43;;;;;;;;;;;;;;;7.42;47.46;101464.84;4756182;29;20263;-73
2021/03/07 01:06:10;;;;;;;;;;;;;;;7.40;47.49;101462.22;4760465;29;20243;-74
2021/03/07 01:09:01;;;;;;;;;;;;;;;7.37;47.61;101456.97;4762671;29;20398;-74
2021/03/07 01:11:28;;;;;;;;;;;;;;;7.38;47.62;101447.31;4747074;29;20235;-73
2021/03/07 01:13:55;;;;;;;;;;;;;;;7.38;47.70;101445.59;4771653;29;19936;-74
2021/03/07 01:16:22;;;;;;;;;;;;;;;7.28;48.15;101426.28;4775172;29;21248;-74
2021/03/07 01:18:50;;;;;;;;;;;;;;;7.33;47.95;101436.81;4775214;29;19941;-74
2021/03/07 01:21:18;;;;;;;;;;;;;;;7.33;48.14;101421.03;4772462;29;19981;-73
2021/03/07 01:23:45;;;;;;;;;;;;;;;7.26;48.19;101417.53;4772406;29;21267;-74
2021/03/07 01:26:12;;;;;;;;;;;;;;;7.30;48.20;101423.66;4762392;29;19943;-74
2021/03/07 01:28:42;;;;;;;;;;;;;;;7.28;48.64;101414.91;4775914;29;19989;-74
2021/03/07 01:31:09;;;;;;;;;;;;;;;7.27;48.35;101410.50;4754604;29;19940;-73
2021/03/07 01:34:01;;;;;;;;;;;;;;;7.29;48.38;101416.66;4756576;29;20438;-73
2021/03/07 01:36:29;;;;;;;;;;;;;;;7.23;48.68;101417.53;4755528;29;20101;-73
2021/03/07 01:38:56;;;;;;;;;;;;;;;7.25;48.88;101407.00;4753177;29;19929;-73
2021/03/07 01:41:25;;;;;;;;;;;;;;;7.24;48.81;101411.41;4748303;29;19948;-74
2021/03/07 01:43:51;;;;;;;;;;;;;;;7.24;48.80;101405.28;4758455;29;21190;-73
2021/03/07 01:46:18;;;;;;;;;;;;;;;7.22;48.91;101391.22;4751360;29;19943;-74
2021/03/07 01:48:45;;;;;;;;;;;;;;;7.21;48.82;101393.00;4757605;29;19957;-73
2021/03/07 01:51:13;;;;;;;;;;;;;;;7.19;49.12;101386.84;4753921;29;19979;-73
2021/03/07 01:53:43;;;;;;;;;;;;;;;7.19;49.15;101380.72;4754140;29;19947;-74
2021/03/07 01:56:11;;;;;;;;;;;;;;;7.18;49.42;101366.66;4745615;29;19937;-73
2021/03/07 01:58:43;;;;;;;;;;;;;;;7.17;49.29;101369.31;4759728;29;19937;-74
2021/03/07 02:01:10;;;;;;;;;;;;;;;7.17;49.20;101372.84;4753849;29;20541;-74
2021/03/07 02:04:01;;;;;;;;;;;;;;;7.15;49.43;101364.91;4757000;29;20670;-73
2021/03/07 02:06:28;;;;;;;;;;;;;;;7.14;49.62;101357.94;4747201;29;21043;-74
2021/03/07 02:08:58;;;;;;;;;;;;;;;7.21;48.85;101352.63;4753198;29;20410;-73
2021/03/07 02:11:25;;;;;;;;;;;;;;;7.38;47.57;101360.47;4752999;29;19982;-73
2021/03/07 02:13:53;;;;;;;;;;;;;;;7.48;45.92;101349.91;4756500;29;19944;-74
2021/03/07 02:16:22;;;;;;;;;;;;;;;7.54;45.02;101348.97;4749129;29;20713;-73
2021/03/07 02:18:51;;;;;;;;;;;;;;;7.55;44.21;101345.47;4756524;29;20528;-73
2021/03/07 02:21:20;;;;;;;;;;;;;;;7.61;43.42;101347.19;4751790;29;19947;-74
2021/03/07 02:23:52;;;;;;;;;;;;;;;7.63;43.18;101332.28;4751265;29;20315;-73
2021/03/07 02:26:19;;;;;;;;;;;;;;;7.68;42.53;101332.22;4748469;29;19937;-74
2021/03/07 02:28:47;;;;;;;;;;;;;;;7.72;41.82;101329.56;4756439;29;19984;-73
2021/03/07 02:31:15;;;;;;;;;;;;;;;7.68;41.92;101325.19;4767656;29;19997;-73
2021/03/07 02:33:43;;;;;;;;;;;;;;;7.61;43.44;101331.38;4771448;29;19936;-73
2021/03/07 02:36:14;;;;;;;;;;;;;;;7.57;44.32;101327.88;4756175;29;19943;-73
2021/03/07 02:38:43;;;;;;;;;;;;;;;7.57;44.94;101316.50;4767495;29;19937;-73
2021/03/07 02:41:12;;;;;;;;;;;;;;;7.61;44.14;101315.59;4765671;29;19957;-73
2021/03/07 02:43:43;;;;;;;;;;;;;;;7.65;43.53;101315.53;4770876;29;19963;-73
2021/03/07 02:46:13;;;;;;;;;;;;;;;7.70;42.80;101304.13;4763968;29;20374;-73
2021/03/07 02:48:41;;;;;;;;;;;;;;;7.74;41.98;101308.50;4773813;29;19928;-73
2021/03/07 02:51:09;;;;;;;;;;;;;;;7.77;41.43;101312.00;4765245;29;20510;-73
2021/03/07 02:54:01;;;;;;;;;;;;;;;7.81;41.27;101312.81;4764090;29;20765;-73
2021/03/07 02:56:31;;;;;;;;;;;;;;;7.83;40.84;101303.16;4760726;29;20152;-74
2021/03/07 02:59:00;;;;;;;;;;;;;;;7.87;40.49;101298.75;4764518;29;19944;-74
2021/03/07 03:01:28;;;;;;;;;;;;;;;7.90;40.07;101299.56;4766886;29;19936;-73
2021/03/07 03:03:55;;;;;;;;;;;;;;;7.91;39.80;101284.66;4772129;29;21218;-73
2021/03/07 03:06:23;;;;;;;;;;;;;;;7.86;40.19;101284.69;4762102;29;19943;-73
2021/03/07 03:08:51;;;;;;;;;;;;;;;7.70;40.81;101280.44;4766929;29;19959;-74
2021/03/07 03:11:19;;;;;;;;;;;;;;;7.56;41.63;101281.38;4749842;29;20515;-73
2021/03/07 03:13:49;;;;;;;;;;;;;;;7.48;42.57;101286.72;4769110;29;19936;-73
2021/03/07 03:16:16;;;;;;;;;;;;;;;7.43;43.08;101277.06;4770616;29;19936;-74
2021/03/07 03:18:45;;;;;;;;;;;;;;;7.39;43.83;101275.34;4768580;29;20168;-74
2021/03/07 03:21:13;;;;;;;;;;;;;;;7.33;44.26;101268.38;4759093;29;20097;-73
2021/03/07 03:23:41;;;;;;;;;;;;;;;7.31;44.68;101272.75;4756447;29;19959;-73
2021/03/07 03:26:08;;;;;;;;;;;;;;;7.30;44.83;101276.25;4765961;29;20497;-73
2021/03/07 03:28:41;;;;;;;;;;;;;;;7.26;45.25;101269.28;4771111;29;19976;-74
2021/03/07 03:31:09;;;;;;;;;;;;;;;7.26;45.42;101266.63;4769437;29;21270;-73
2021/03/07 03:33:41;;;;;;;;;;;;;;;7.23;45.88;101259.63;4761313;29;20406;-73
2021/03/07 03:36:08;;;;;;;;;;;;;;;7.22;45.99;101267.53;4765412;29;20434;-73
2021/03/07 03:38:43;;;;;;;;;;;;;;;7.22;45.94;101262.28;4769470;29;19943;-73
2021/03/07 03:41:10;;;;;;;;;;;;;;;7.19;46.59;101262.31;4771233;29;20305;-73
2021/03/07 03:43:55;;;;;;;;;;;;;;;7.17;46.71;101264.06;4759612;29;19937;-74
2021/03/07 03:46:23;;;;;;;;;;;;;;;7.17;47.00;101264.94;4759807;29;19937;-74
2021/03/07 03:48:53;;;;;;;;;;;;;;;7.14;47.34;101265.84;4759649;29;20443;-74
2021/03/07 03:51:20;;;;;;;;;;;;;;;7.15;47.02;101261.44;4755672;29;20402;-73
2021/03/07 03:53:47;;;;;;;;;;;;;;;7.13;47.76;101255.28;4760099;29;20284;-73
2021/03/07 03:56:15;;;;;;;;;;;;;;;7.09;47.93;101259.72;4765314;29;19996;-73
2021/03/07 03:58:43;;;;;;;;;;;;;;;7.08;47.80;101265.84;4778144;29;19936;-73
2021/03/07 04:01:10;;;;;;;;;;;;;;;7.07;48.50;101268.50;4773027;29;19996;-73
2021/03/07 04:04:02;;;;;;;;;;;;;;;7.06;48.20;101256.22;4770898;29;19937;-73
2021/03/07 04:06:30;;;;;;;;;;;;;;;7.03;48.65;101262.38;4763575;29;19929;-73
2021/03/07 04:08:57;;;;;;;;;;;;;;;7.03;48.87;101259.75;4770819;29;19941;-73
2021/03/07 04:11:25;;;;;;;;;;;;;;;7.04;48.71;101266.75;4754862;29;19933;-73
2021/03/07 04:14:13;;;;;;;;;;;;;;;7.02;48.68;101262.38;4773294;29;19937;-73
2021/03/07 04:16:40;;;;;;;;;;;;;;;7.02;48.90;101262.38;4766152;29;19944;-73
2021/03/07 04:19:08;;;;;;;;;;;;;;;6.99;49.09;101255.38;4764036;29;20260;-73
2021/03/07 04:21:37;;;;;;;;;;;;;;;6.92;49.42;101249.28;4769202;29;20351;-73
2021/03/07 04:24:04;;;;;;;;;;;;;;;6.96;49.58;101264.16;4773546;29;19937;-73
2021/03/07 04:26:31;;;;;;;;;;;;;;;6.95;49.58;101251.88;4772245;29;19997;-72
2021/03/07 04:28:58;;;;;;;;;;;;;;;6.94;49.83;101246.63;4769615;29;19937;-73
2021/03/07 04:31:25;;;;;;;;;;;;;;;6.93;50.19;101250.13;4764505;29;19936;-73
2021/03/07 04:33:52;;;;;;;;;;;;;;;6.91;49.92;101247.50;4771518;29;19936;-73
2021/03/07 04:36:19;;;;;;;;;;;;;;;6.91;50.18;101257.19;4763348;29;20577;-73
2021/03/07 04:38:47;;;;;;;;;;;;;;;6.91;49.92;101254.53;4750338;29;19952;-73
2021/03/07 04:41:14;;;;;;;;;;;;;;;6.89;50.10;101251.03;4748419;29;20051;-72
2021/03/07 04:43:47;;;;;;;;;;;;;;;6.87;50.38;101237.91;4751439;29;20019;-73
2021/03/07 04:46:14;;;;;;;;;;;;;;;6.87;50.52;101234.38;4743761;29;19937;-73
2021/03/07 04:48:41;;;;;;;;;;;;;;;6.86;50.46;101235.28;4745815;29;19944;-72
2021/03/07 04:51:08;;;;;;;;;;;;;;;6.87;50.59;101226.47;4748791;29;19933;-73
2021/03/07 04:54:00;;;;;;;;;;;;;;;6.86;50.35;101224.75;4752615;29;19959;-73
2021/03/07 04:56:30;;;;;;;;;;;;;;;6.85;50.68;101217.75;4747396;29;20237;-73
2021/03/07 04:58:57;;;;;;;;;;;;;;;6.95;50.04;101222.94;4750321;29;19932;-73
2021/03/07 05:01:24;;;;;;;;;;;;;;;7.09;48.61;101224.63;4735006;29;19948;-73
2021/03/07 05:03:52;;;;;;;;;;;;;;;7.22;46.87;101226.34;4762609;29;20048;-73
2021/03/07 05:06:19;;;;;;;;;;;;;;;7.29;45.85;101216.63;4754853;29;19945;-73
2021/03/07 05:08:45;;;;;;;;;;;;;;;7.31;45.00;101206.97;4763801;29;19932;-73
2021/03/07 05:11:12;;;;;;;;;;;;;;;7.39;44.37;101196.38;4740237;29;19944;-73
2021/03/07 05:13:43;;;;;;;;;;;;;;;7.45;43.95;101194.56;4749594;29;20465;-73
2021/03/07 05:16:10;;;;;;;;;;;;;;;7.51;43.13;101196.28;4743855;29;19948;-73
2021/03/07 05:18:43;;;;;;;;;;;;;;;7.52;42.85;101198.03;4749821;29;21601;-73
2021/03/07 05:21:10;;;;;;;;;;;;;;;7.58;42.54;101191.88;4746527;29;19937;-73
2021/03/07 05:23:43;;;;;;;;;;;;;;;7.54;42.22;101190.13;4737315;29;20262;-73
2021/03/07 05:26:10;;;;;;;;;;;;;;;7.42;44.06;101193.72;4767386;29;19937;-73
2021/03/07 05:29:01;;;;;;;;;;;;;;;7.36;44.83;101181.47;4763985;29;19971;-73
2021/03/07 05:31:30;;;;;;;;;;;;;;;7.32;45.59;101178.00;4746232;29;20535;-73
2021/03/07 05:33:57;;;;;;;;;;;;;;;7.40;45.41;101172.66;4761877;29;21135;-73
2021/03/07 05:36:24;;;;;;;;;;;;;;;7.45;44.36;101170.03;4759508;29;20343;-73
2021/03/07 05:38:51;;;;;;;;;;;;;;;7.50;43.86;101173.50;4761241;29;20292;-73
2021/03/07 05:41:17;;;;;;;;;;;;;;;7.58;43.01;101170.81;4753553;29;20456;-73
2021/03/07 05:43:44;;;;;;;;;;;;;;;7.58;42.17;101174.28;4754695;29;20005;-73
2021/03/07 05:46:11;;;;;;;;;;;;;;;7.62;42.17;101157.59;4756415;29;19936;-73
2021/03/07 05:48:43;;;;;;;;;;;;;;;7.63;41.70;101164.59;4757091;29;21188;-73
2021/03/07 05:51:12;;;;;;;;;;;;;;;7.70;41.60;101148.75;4750781;29;20824;-73
2021/03/07 05:53:45;;;;;;;;;;;;;;;7.72;41.17;101146.97;4755810;29;19961;-73
2021/03/07 05:56:13;;;;;;;;;;;;;;;7.67;40.93;101154.03;4752180;29;19944;-73
2021/03/07 05:58:44;;;;;;;;;;;;;;;7.77;40.56;101153.97;4753972;29;20942;-73
2021/03/07 06:01:11;;;;;;;;;;;;;;;7.75;40.70;101160.97;4751134;29;19971;-73
2021/03/07 06:03:45;;;;;;;;;;;;;;;7.78;40.82;101157.44;4756135;29;19937;-73
2021/03/07 06:06:12;;;;;;;;;;;;;;;7.83;40.52;101166.19;4753737;29;19938;-73
2021/03/07 06:08:42;;;;;;;;;;;;;;;7.73;40.93;101161.88;4755918;29;20282;-74
2021/03/07 06:11:28;;;;;;;;;;;;;;;7.58;41.99;101165.53;4743150;29;19944;-73
2021/03/07 06:13:55;;;;;;;;;;;;;;;7.42;42.95;101164.75;4753226;29;20357;-73
2021/03/07 06:16:22;;;;;;;;;;;;;;;7.38;43.86;101161.31;4754621;29;22207;-73
2021/03/07 06:18:51;;;;;;;;;;;;;;;7.34;44.16;101156.06;4760214;29;21066;-74
2021/03/07 06:21:28;;;;;;;;;;;;;;;7.29;44.83;101161.38;4750706;29;20258;-72
2021/03/07 06:23:55;;;;;;;;;;;;;;;7.24;45.19;101152.63;4758061;29;20709;-74
2021/03/07 06:26:22;;;;;;;;;;;;;;;7.27;45.29;101152.59;4758780;29;20077;-75
2021/03/07 06:29:06;;;;;;;;;;;;;;;7.22;46.22;101152.66;4756248;29;20036;-72
2021/03/07 06:31:33;;;;;;;;;;;;;;;7.20;46.51;101156.19;4772311;29;20347;-74
2021/03/07 06:34:01;;;;;;;;;;;;;;;7.15;46.93;101157.06;4775894;29;19967;-74
2021/03/07 06:36:29;;;;;;;;;;;;;;;7.15;46.99;101153.56;4769990;29;20952;-74
2021/03/07 06:38:56;;;;;;;;;;;;;;;7.14;47.31;101171.13;4771924;29;19965;-74
2021/03/07 06:41:24;;;;;;;;;;;;;;;7.08;47.65;101163.25;4760810;29;19932;-74
2021/03/07 06:43:51;;;;;;;;;;;;;;;7.13;47.81;101160.56;4772879;29;20161;-74
2021/03/07 06:46:28;;;;;;;;;;;;;;;7.14;48.29;101159.69;4769221;29;19936;-74
2021/03/07 06:48:55;;;;;;;;;;;;;;;7.11;48.37;101155.31;4773294;29;19936;-74
2021/03/07 06:51:27;;;;;;;;;;;;;;;7.10;48.83;101144.81;4764409;29;20268;-74
2021/03/07 06:53:54;;;;;;;;;;;;;;;7.11;48.81;101151.84;4770430;29;19967;-73
2021/03/07 06:56:40;;;;;;;;;;;;;;;7.11;49.07;101143.94;4763665;29;20507;-74
2021/03/07 06:59:14;;;;;;;;;;;;;;;7.09;49.35;101146.59;4770285;29;20056;-74
2021/03/07 07:01:42;;;;;;;;;;;;;;;7.09;49.28;101138.69;4753440;29;19937;-74
2021/03/07 07:04:09;;;;;;;;;;;;;;;7.09;49.68;101140.44;4764217;29;20600;-73
2021/03/07 07:06:39;;;;;;;;;;;;;;;7.10;49.83;101142.19;4800272;29;19953;-74
2021/03/07 07:09:07;;;;;;;;;;;;;;;7.10;50.03;101143.03;4815155;29;20552;-73
2021/03/07 07:11:41;;;;;;;;;;;;;;;7.12;50.14;101150.97;4828197;29;19934;-74
2021/03/07 07:14:08;;;;;;;;;;;;;;;7.14;49.86;101142.16;4828624;29;20396;-74
2021/03/07 07:16:34;;;;;;;;;;;;;;;7.18;49.98;101144.78;4833954;29;20009;-74
2021/03/07 07:19:02;;;;;;;;;;;;;;;7.19;50.15;101133.38;4833681;29;20420;-73
2021/03/07 07:21:29;;;;;;;;;;;;;;;7.16;50.43;101129.00;4830711;29;19955;-73
2021/03/07 08:38:27;;;;;;;;;;;;;;;8.83;39.60;101092.97;4851423;29;19961;-76
2021/03/07 08:53:45;;;;;;;;;;;;;;;8.45;44.24;101091.72;5587279;23;20035;-71
2021/03/07 08:56:13;;;;;;;;;;;;;;;8.44;44.77;101093.47;4847463;29;20442;-71
2021/03/07 08:58:40;;;;;;;;;;;;;;;8.41;45.13;101093.50;4847134;29;19943;-71
2021/03/07 09:01:07;;;;;;;;;;;;;;;8.35;45.47;101090.94;4849045;29;20453;-73
2021/03/07 09:03:34;;;;;;;;;;;;;;;8.43;45.69;101088.22;4841350;29;20397;-71
2021/03/07 09:06:08;;;;;;;;;;;;;;;8.49;45.50;101082.03;4842472;29;20248;-72
2021/03/07 09:08:35;;;;;;;;;;;;;;;8.47;45.65;101084.69;4850651;29;19932;-72
2021/03/07 09:11:07;;;;;;;;;;;;;;;8.52;46.15;101081.97;4847625;29;19932;-72
2021/03/07 09:13:34;;;;;;;;;;;;;;;8.73;45.72;101080.81;4853483;29;20023;-72
2021/03/07 09:16:02;;;;;;;;;;;;;;;8.72;45.61;101081.69;4842477;29;19940;-72
2021/03/07 09:18:31;;;;;;;;;;;;;;;8.64;46.39;101074.78;4841670;29;19971;-73
2021/03/07 09:21:16;;;;;;;;;;;;;;;8.58;47.09;101088.03;4845074;29;19939;-73
2021/03/07 09:23:45;;;;;;;;;;;;;;;8.55;47.66;101085.47;4848311;29;19937;-73
2021/03/07 09:26:13;;;;;;;;;;;;;;;8.50;47.71;101087.28;4835987;29;20071;-73
2021/03/07 09:28:41;;;;;;;;;;;;;;;8.61;47.38;101093.25;4825704;29;19928;-74
2021/03/07 09:31:10;;;;;;;;;;;;;;;8.45;48.06;101092.59;4834120;29;19933;-73
2021/03/07 09:33:37;;;;;;;;;;;;;;;8.46;47.81;101085.59;4820694;29;20313;-73
2021/03/07 09:36:06;;;;;;;;;;;;;;;8.57;47.61;101083.66;4829215;29;19928;-72
2021/03/07 09:38:57;;;;;;;;;;;;;;;8.59;47.96;101087.16;4824527;29;20089;-72
2021/03/07 09:41:29;;;;;;;;;;;;;;;8.65;47.53;101088.81;4816599;29;19936;-73
2021/03/07 09:43:56;;;;;;;;;;;;;;;8.68;47.94;101088.81;4835671;29;19929;-73
2021/03/07 09:46:24;;;;;;;;;;;;;;;8.61;48.52;101095.03;4819463;29;20029;-73
2021/03/07 09:48:54;;;;;;;;;;;;;;;8.58;48.09;101095.09;4824412;29;19941;-75
2021/03/07 09:51:21;;;;;;;;;;;;;;;8.69;48.40;101098.44;4819118;29;20035;-76
2021/03/07 09:53:48;;;;;;;;;;;;;;;8.73;48.11;101097.53;4826275;29;20536;-73
2021/03/07 09:56:25;;;;;;;;;;;;;;;8.82;48.16;101109.69;4828682;29;19933;-72
2021/03/07 09:58:52;;;;;;;;;;;;;;;8.93;47.57;101099.88;4814030;29;20658;-73
2021/03/07 10:01:19;;;;;;;;;;;;;;;9.18;47.17;101103.88;4825911;29;19929;-74
2021/03/07 10:03:46;;;;;;;;;;;;;;;9.54;45.10;101105.03;4819363;29;19936;-72
2021/03/07 10:06:17;;;;;;;;;;;;;;;9.71;43.78;101112.66;4825667;29;19940;-72
2021/03/07 10:08:45;;;;;;;;;;;;;;;9.66;42.70;101113.66;4828814;29;19959;-73
2021/03/07 10:11:19;;;;;;;;;;;;;;;9.71;42.12;101115.31;4828655;29;19940;-73
2021/03/07 10:13:46;;;;;;;;;;;;;;;9.70;42.59;101117.97;4826522;29;19933;-73
2021/03/07 10:16:24;;;;;;;;;;;;;;;9.80;43.17;101109.00;4823809;29;19939;-73
2021/03/07 10:19:08;;;;;;;;;;;;;;;9.93;43.26;101107.00;4818989;29;19932;-73
2021/03/07 10:21:35;;;;;;;;;;;;;;;10.06;42.62;101103.22;4822624;29;20031;-72
2021/03/07 10:24:10;;;;;;;;;;;;;;;10.22;41.62;101101.13;4820407;29;20034;-73
2021/03/07 10:26:38;;;;;;;;;;;;;;;10.45;40.54;101100.69;4825605;29;19936;-73
2021/03/07 10:29:18;;;;;;;;;;;;;;;10.93;39.12;101109.34;4815106;29;19972;-73
2021/03/07 10:31:58;;;;;;;;;;;;;;;11.69;36.93;101113.66;4812815;29;20012;-73
2021/03/07 10:34:35;;;;;;;;;;;;;;;12.18;35.36;101116.78;4822817;29;19993;-73
2021/03/07 10:37:03;;;;;;;;;;;;;;;11.75;35.77;101117.94;4825748;29;22086;-74
2021/03/07 10:39:29;;;;;;;;;;;;;;;11.18;36.81;101116.72;4806516;29;20016;-73
2021/03/07 10:42:04;;;;;;;;;;;;;;;10.94;37.00;101132.28;4823507;29;19928;-74
2021/03/07 10:44:31;;;;;;;;;;;;;;;10.90;36.96;101141.16;4818872;29;20024;-73
2021/03/07 10:50:21;;;;;;;;;;;;;;;10.87;37.74;101138.59;4823265;29;19935;-72
2021/03/07 10:52:48;;;;;;;;;;;;;;;11.13;37.43;101141.50;4822540;29;20399;-73
2021/03/07 10:55:15;;;;;;;;;;;;;;;11.74;36.76;101135.63;4822771;29;19933;-72
2021/03/07 10:57:43;;;;;;;;;;;;;;;12.26;36.01;101133.34;4821069;29;19932;-72
2021/03/07 11:00:10;;;;;;;;;;;;;;;13.09;34.51;101122.06;4821950;29;19989;-72
2021/03/07 11:02:44;;;;;;;;;;;;;;;13.25;34.58;101127.72;4825496;29;20406;-72
2021/03/07 11:05:13;;;;;;;;;;;;;;;13.39;34.37;101143.25;4824471;29;20403;-74
2021/03/07 11:07:43;;;;;;;;;;;;;;;13.39;34.89;101142.38;4832545;29;20056;-73
2021/03/07 11:10:12;;;;;;;;;;;;;;;13.23;35.48;101134.00;4836906;29;20569;-73
2021/03/07 11:12:42;;;;;;;;;;;;;;;13.40;35.16;101147.63;4816047;29;20172;-74
2021/03/07 11:15:11;;;;;;;;;;;;;;;13.67;35.09;101150.31;4818283;29;20199;-73
2021/03/07 11:18:03;;;;;;;;;;;;;;;13.82;35.07;101159.53;4825390;29;19936;-73
2021/03/07 11:20:31;;;;;;;;;;;;;;;13.99;34.88;101161.63;4826828;29;20021;-75
2021/03/07 11:22:58;;;;;;;;;;;;;;;13.93;35.05;101153.84;4825507;29;20314;-74
2021/03/07 11:25:25;;;;;;;;;;;;;;;13.91;35.14;101161.88;4821257;29;19929;-74
2021/03/07 11:27:52;;;;;;;;;;;;;;;13.93;35.34;101167.16;4803317;29;19952;-74
2021/03/07 11:30:19;;;;;;;;;;;;;;;14.32;34.57;101166.66;4814066;29;19941;-74
2021/03/07 11:32:46;;;;;;;;;;;;;;;14.52;34.67;101165.91;4826746;29;19938;-74
2021/03/07 11:35:13;;;;;;;;;;;;;;;15.75;32.56;101170.84;4822448;29;20351;-74
2021/03/07 11:37:44;;;;;;;;;;;;;;;16.91;30.42;101160.44;4828153;29;20674;-71
2021/03/07 11:40:11;;;;;;;;;;;;;;;17.16;30.00;101164.59;4821351;29;19943;-74
2021/03/07 11:42:41;;;;;;;;;;;;;;;17.12;30.33;101156.81;4819112;29;19936;-72
2021/03/07 11:45:08;;;;;;;;;;;;;;;17.98;28.95;101160.56;4820404;29;19932;-73
2021/03/07 11:47:44;;;;;;;;;;;;;;;17.46;29.80;101172.06;4822037;29;20915;-72
2021/03/07 11:50:12;;;;;;;;;;;;;;;17.39;30.18;101167.97;4825589;29;20043;-71
2021/03/07 11:52:42;;;;;;;;;;;;;;;18.47;28.80;101172.28;4823956;29;19929;-73
2021/03/07 11:55:10;;;;;;;;;;;;;;;19.64;26.98;101162.19;4823402;29;20286;-71
2021/03/07 11:57:43;;;;;;;;;;;;;;;18.75;28.33;101158.25;4825004;29;19943;-72
2021/03/07 12:00:10;;;;;;;;;;;;;;;19.63;27.08;101157.78;4821773;29;19929;-71
2021/03/07 12:02:43;;;;;;;;;;;;;;;20.88;25.33;101153.72;4821838;29;19932;-72
2021/03/07 12:05:10;;;;;;;;;;;;;;;19.73;27.21;101161.66;4823510;29;19997;-72
2021/03/07 12:07:43;;;;;;;;;;;;;;;19.26;28.22;101159.94;4831318;29;19932;-74
2021/03/07 12:10:12;;;;;;;;;;;;;;;20.08;27.16;101158.72;4818837;29;19985;-72
2021/03/07 12:12:41;;;;;;;;;;;;;;;20.05;27.55;101158.88;4822980;29;19938;-74
2021/03/07 12:15:09;;;;;;;;;;;;;;;20.52;26.86;101152.38;4825511;29;20465;-74
2021/03/07 12:17:42;;;;;;;;;;;;;;;22.37;24.51;101151.91;4829172;29;19936;-74
2021/03/07 12:20:10;;;;;;;;;;;;;;;25.93;20.01;101151.31;4827079;29;20028;-73
2021/03/07 12:22:45;;;;;;;;;;;;;;;27.89;17.93;101144.56;4820910;29;20004;-73
2021/03/07 12:25:14;;;;;;;;;;;;;;;29.20;16.40;101151.94;4821022;29;19932;-74
2021/03/07 12:27:41;;;;;;;;;;;;;;;31.00;15.04;101150.63;4820358;29;19932;-73
2021/03/07 12:30:09;;;;;;;;;;;;;;;31.77;14.40;101159.47;4823682;29;19929;-74
2021/03/07 12:33:01;;;;;;;;;;;;;;;32.82;13.48;101149.50;4826848;29;20041;-73
2021/03/07 12:35:27;;;;;;;;;;;;;;;34.65;11.97;101153.22;4824043;29;19944;-73
2021/03/07 12:37:55;;;;;;;;;;;;;;;34.68;12.47;101157.50;4825966;29;19953;-74
2021/03/07 12:40:22;;;;;;;;;;;;;;;35.83;11.49;101174.19;4815883;29;19951;-74
2021/03/07 12:42:49;;;;;;;;;;;;;;;36.13;11.48;101172.13;4824459;29;20278;-72
2021/03/07 12:45:16;;;;;;;;;;;;;;;36.63;10.96;101166.50;4809822;29;19933;-72
2021/03/07 12:47:43;;;;;;;;;;;;;;;36.23;11.35;101175.38;4823198;29;20368;-73
2021/03/07 12:50:24;;;;;;;;;;;;;;;36.27;11.47;101186.81;4825792;29;19932;-72
2021/03/07 12:52:52;;;;;;;;;;;;;;;36.50;11.47;101183.81;4825151;29;20003;-72
2021/03/07 12:55:19;;;;;;;;;;;;;;;36.52;11.70;101175.34;4820447;29;19955;-72
2021/03/07 12:57:46;;;;;;;;;;;;;;;36.88;11.51;101180.63;4825335;29;19933;-72
2021/03/07 13:00:13;;;;;;;;;;;;;;;37.00;11.40;101175.34;4828554;29;19932;-73
2021/03/07 13:02:43;;;;;;;;;;;;;;;36.68;11.58;101179.63;4828077;29;22910;-71
2021/03/07 13:05:29;;;;;;;;;;;;;;;37.98;11.25;101174.03;4823451;29;20035;-72
2021/03/07 13:12:10;;;;;;;;;;;;;;;38.29;10.94;101175.28;5091942;23;19961;-74
2021/03/07 13:14:38;;;;;;;;;;;;;;;39.34;10.15;101171.44;4860145;29;19932;-74
2021/03/07 13:17:06;;;;;;;;;;;;;;;39.63;10.25;101180.19;4855427;29;19999;-75
2021/03/07 13:19:33;;;;;;;;;;;;;;;39.28;10.14;101177.88;4855751;29;19940;-75
2021/03/07 13:22:00;;;;;;;;;;;;;;;39.39;10.39;101173.53;4838383;29;19932;-75
2021/03/07 13:24:27;;;;;;;;;;;;;;;39.47;10.37;101170.50;4857060;29;19936;-74
2021/03/07 13:26:54;;;;;;;;;;;;;;;39.55;10.37;101174.91;4859865;29;20404;-74
2021/03/07 13:29:21;;;;;;;;;;;;;;;39.45;10.47;101171.78;4856350;29;19964;-75
2021/03/07 13:31:49;;;;;;;;;;;;;;;39.20;11.22;101178.13;4855922;29;19932;-75
2021/03/07 13:34:16;;;;;;;;;;;;;;;38.93;11.46;101180.16;4843975;29;20010;-75
2021/03/07 13:36:44;;;;;;;;;;;;;;;38.34;11.75;101183.75;4851774;29;19989;-74
2021/03/07 13:39:11;;;;;;;;;;;;;;;37.48;12.52;101181.84;4843220;29;20460;-75
2021/03/07 13:41:38;;;;;;;;;;;;;;;36.64;13.28;101181.09;4841708;29;19947;-74
2021/03/07 13:44:05;;;;;;;;;;;;;;;35.62;14.44;101173.16;4842989;29;19967;-74
2021/03/07 13:46:32;;;;;;;;;;;;;;;34.84;14.92;101187.53;4856377;29;19943;-75
2021/03/07 13:49:01;;;;;;;;;;;;;;;34.44;15.25;101181.47;4857378;29;19977;-75
2021/03/07 13:51:29;;;;;;;;;;;;;;;34.52;15.54;101178.63;4853518;29;19941;-74
2021/03/07 13:53:56;;;;;;;;;;;;;;;34.34;15.57;101180.91;4847433;29;19928;-74
2021/03/07 13:56:23;;;;;;;;;;;;;;;34.38;15.84;101176.72;4838093;29;19943;-75
2021/03/07 13:58:50;;;;;;;;;;;;;;;34.25;16.09;101174.59;4861985;29;19999;-74
2021/03/07 14:01:17;;;;;;;;;;;;;;;35.02;15.22;101184.34;4838548;29;19929;-75
2021/03/07 14:03:44;;;;;;;;;;;;;;;35.81;14.19;101174.38;4856176;29;19932;-74
2021/03/07 14:06:13;;;;;;;;;;;;;;;36.36;14.04;101193.88;4852446;29;19963;-74
2021/03/07 14:08:40;;;;;;;;;;;;;;;35.47;14.92;101188.88;4840343;29;20441;-74
2021/03/07 14:11:07;;;;;;;;;;;;;;;34.90;15.19;101207.91;4860798;29;19939;-75
2021/03/07 14:13:34;;;;;;;;;;;;;;;34.51;16.10;101198.88;4859058;29;19939;-75
2021/03/07 14:16:04;;;;;;;;;;;;;;;34.16;16.18;101200.44;4857133;29;19961;-74
2021/03/07 14:18:31;;;;;;;;;;;;;;;33.70;16.79;101207.69;4841033;29;19940;-75
2021/03/07 14:20:58;;;;;;;;;;;;;;;33.59;16.92;101200.75;4852637;29;19932;-75
2021/03/07 14:23:26;;;;;;;;;;;;;;;33.20;17.39;101198.06;4839950;29;19946;-74
2021/03/07 14:25:53;;;;;;;;;;;;;;;32.99;17.45;101199.56;4856634;29;19936;-75
2021/03/07 14:28:20;;;;;;;;;;;;;;;32.89;18.05;101198.94;4838309;29;19932;-74
2021/03/07 14:30:47;;;;;;;;;;;;;;;32.93;17.87;101203.00;4838770;29;19980;-75